Cebollita Spring, Valles Caldera, New Mexico Weather observations

Data are for 10 minute period ending at time listed.
 Day   Time   Solar   Ave.   Ave.  Ave.  Vector  Max.   Baro.   Total    
  of    of     Rad.   Air    Rel.  Wind   Wind   Wind  Press.  Precip.   
Year   Day            Temp.  Hum.  Speed  Dir.   Gust                    
2017   (MST)  Kw/m2    F      %     mph   deg.    mph    mb.     in.     
-------------------------------------------------------------------------
  22   21:30   0.00   23.0    84    1.7    26     3.6   99999.0    0.00 
  22   21:40   0.00   22.7    88    1.2     4     3.6   99999.0    0.00 
  22   21:50   0.00   22.5    91    0.2   335     1.8   99999.0    0.00 
  22   22:00   0.00   22.6    94    0.9   343     2.4   99999.0    0.00 
  22   22:10   0.00   22.6    94    0.3    95     3.0   99999.0    0.00 
  22   22:20   0.00   22.7    95    1.6    41     3.0   99999.0    0.00 
  22   22:30   0.00   22.7    98    1.5    22     4.2   99999.0    0.00 
  22   22:40   0.00   22.9   100    1.5    54     3.6   99999.0    0.00 
  22   22:50   0.00   23.4   100    2.7   347     5.4   99999.0    0.00 
  22   23:00   0.00   23.9   100    2.3   318     6.6   99999.0    0.00 
  22   23:10   0.00   24.5    98    2.5   329     6.6   99999.0    0.00 
  22   23:20   0.00   25.0    97    2.5   351     6.0   99999.0    0.00 
  22   23:30   0.00   25.1    98    2.6   336     6.0   99999.0    0.00 
  22   23:40   0.00   25.1    99    2.2     6     4.8   99999.0    0.00 
  22   23:50   0.00   25.0   100    1.9   304     4.2   99999.0    0.00 
  23    0:00   0.00   24.9   100    3.6   330     8.4   99999.0    0.00 
  23    0:10   0.00   25.2   100    5.1   310    10.8   99999.0    0.00 
  23    0:20   0.00   25.5   100    5.5   309    11.3   99999.0    0.00 
  23    0:30   0.00   25.7   100    5.4   300    10.2   99999.0    0.00 
  23    0:40   0.00   25.8    99    4.4   307     9.0   99999.0    0.00 
  23    0:50   0.00   25.9    98    5.2   298    11.3   99999.0    0.00 
  23    1:00   0.00   25.9    97    5.8   301    10.8   99999.0    0.00 
  23    1:10   0.00   25.6    98    3.4   290     7.8   99999.0    0.00 
  23    1:20   0.00   25.5    99    2.3   336     7.2   99999.0    0.00 
  23    1:30   0.00   25.4   100    1.7    20     3.6   99999.0    0.00 
  23    1:40   0.00   25.3   100    1.8   309     3.6   99999.0    0.00 
  23    1:50   0.00   25.3   100    1.7    77     4.2   99999.0    0.00 
  23    2:00   0.00   25.2   100    2.9    36     5.4   99999.0    0.00 
  23    2:10   0.00   25.3   100    1.9    14     4.2   99999.0    0.00 
  23    2:20   0.00   25.4   100    0.8    65     3.0   99999.0    0.00 
  23    2:30   0.00   25.4   100    1.5   315     3.6   99999.0    0.00 
  23    2:40   0.00   25.4   100    1.4    10     3.6   99999.0    0.00 
  23    2:50   0.00   25.4   100    1.4   150     3.0   99999.0    0.00 
  23    3:00   0.00   25.6    98    2.4   282     6.6   99999.0    0.00 
  23    3:10   0.00   25.8    96    2.3   268     8.4   99999.0    0.00 
  23    3:20   0.00   26.3    86    2.5   260     7.8   99999.0    0.00 
  23    3:30   0.00   26.6    82    3.4   252     8.4   99999.0    0.00 
  23    3:40   0.00   26.9    78    3.8   258    10.2   99999.0    0.00 
  23    3:50   0.00   27.0    77    2.3   224     6.6   99999.0    0.00 
  23    4:00   0.00   26.6    78    2.5   206    10.8   99999.0    0.00 
  23    4:10   0.00   26.0    81    1.0   297     3.0   99999.0    0.00 
  23    4:20   0.00   25.8    84    0.1   181     1.8   99999.0    0.00 
  23    4:30   0.00   25.6    87    0.2    93     3.0   99999.0    0.00 
  23    4:40   0.00   25.3    91    1.0    95     3.0   99999.0    0.00 
  23    4:50   0.00   24.9    93    0.8    79     2.4   99999.0    0.00 
  23    5:00   0.00   24.4    95    0.9     2     3.0   99999.0    0.00 
  23    5:10   0.00   24.1    96    0.3    12     1.8   99999.0    0.00 
  23    5:20   0.00   23.7    97    0.7    82     1.8   99999.0    0.01 
  23    5:30   0.00   23.1    98    0.4   131     1.8   99999.0    0.00 
  23    5:40   0.00   23.1   100    0.7   355     2.4   99999.0    0.00 
  23    5:50   0.00   23.4   100    0.1   339     1.8   99999.0    0.00 
  23    6:00   0.00   23.6   100    0.0     0     0.0   99999.0    0.00 
  23    6:10   0.00   23.8   100    0.5   357     3.0   99999.0    0.00 
  23    6:20   0.00   24.0   100    0.6    68     2.4   99999.0    0.00 
  23    6:30   0.00   24.1   100    0.4    64     2.4   99999.0    0.00 
  23    6:40   0.00   24.2   100    0.9    91     3.0   99999.0    0.00 
  23    6:50   0.00   24.3   100    0.8   290     2.4   99999.0    0.00 
  23    7:00   0.00   24.4   100    0.3   109     3.0   99999.0    0.00 
  23    7:10   0.00   24.6   100    0.6   108     3.0   99999.0    0.00 
  23    7:20   0.00   24.8   100    0.9    61     3.0   99999.0    0.00 
  23    7:30   0.01   24.8   100    0.2    73     1.8   99999.0    0.00 
  23    7:40   0.02   25.0   100    1.0    94     4.2   99999.0    0.00 
  23    7:50   0.02   25.0    99    1.0   114     4.2   99999.0    0.02 
  23    8:00   0.04   24.3    99    1.1   113     4.8   99999.0    0.01 
  23    8:10   0.07   24.6    99    2.8   122     6.0   99999.0    0.00 
  23    8:20   0.09   25.9    97    2.8   139     6.0   99999.0    0.00 
  23    8:30   0.07   26.5    91    1.9   148     3.6   99999.0    0.00 
  23    8:40   0.07   26.9    89    3.3   146     6.6   99999.0    0.00 
  23    8:50   0.06   27.4    88    2.9   154     5.4   99999.0    0.00 
  23    9:00   0.07   27.4    87    3.2   148     6.0   99999.0    0.00 
  23    9:10   0.08   27.5    86    3.6   132     7.8   99999.0    0.00 
  23    9:20   0.09   27.5    86    3.4   151     7.2   99999.0    0.00 
  23    9:30   0.12   28.0    85    2.8   144     5.4   99999.0    0.00 
  23    9:40   0.24   29.2    81    3.7   132     8.4   99999.0    0.00 
  23    9:50   0.18   30.0    78    3.4   134     7.8   99999.0    0.00 
  23   10:00   0.17   29.5    79    3.6   150     8.4   99999.0    0.00 
  23   10:10   0.17   29.9    79    3.5   124     7.8   99999.0    0.00 
  23   10:20   0.18   30.2    78    2.6   155     6.0   99999.0    0.00 
  23   10:30   0.23   31.3    75    2.7   132     6.0   99999.0    0.00 
  23   10:40   0.23   31.6    75    4.2   123     9.0   99999.0    0.00 
  23   10:50   0.36   32.6    73    5.0   121     7.8   99999.0    0.00 
  23   11:00   0.46   35.0    67    5.3   145    10.2   99999.0    0.00 
  23   11:10   0.46   35.9    64    5.4   154    10.8   99999.0    0.00 
  23   11:20   0.47   37.7    60    5.2   152     9.6   99999.0    0.00 
  23   11:30   0.48   38.5    60    4.6   168    11.9   99999.0    0.00 
  23   11:40   0.49   38.8    58    4.6   183    12.5   99999.0    0.00 
  23   11:50   0.49   39.9    56    4.8   176    11.3   99999.0    0.00 
  23   12:00   0.50   40.1    54    6.0   172    11.9   99999.0    0.00 
  23   12:10   0.48   40.9    53    5.2   180    13.7   99999.0    0.00 
  23   12:20   0.50   40.0    53    5.8   178    15.5   99999.0    0.00 
  23   12:30   0.48   40.8    53    6.9   150    13.7   99999.0    0.00 
  23   12:40   0.50   39.9    54    7.6   156    15.5   99999.0    0.00 
  23   12:50   0.48   39.7    54    6.6   180    13.1   99999.0    0.00 
  23   13:00   0.45   40.7    51    6.0   182    11.9   99999.0    0.00 
  23   13:10   0.46   40.8    51    6.3   178    15.5   99999.0    0.00 
  23   13:20   0.45   41.4    51    4.9   168     9.6   99999.0    0.00 
  23   13:30   0.43   40.6    54    7.1   166    14.3   99999.0    0.00 
  23   13:40   0.16   38.3    59    7.3   162    14.9   99999.0    0.00 
  23   13:50   0.16   37.3    63    4.6   180    11.9   99999.0    0.00 
  23   14:00   0.10   37.2    63    5.0   180    10.8   99999.0    0.00 
  23   14:10   0.06   36.3    66    4.1   175     9.0   99999.0    0.00 
  23   14:20   0.05   35.8    68    4.7   170    10.2   99999.0    0.00 
  23   14:30   0.11   35.9    70    3.1   179     7.2   99999.0    0.00 
  23   14:40   0.15   37.1    67    3.7   192     7.8   99999.0    0.00 
  23   14:50   0.26   38.7    60    5.7   208    15.5   99999.0    0.00 
  23   15:00   0.24   40.9    47    9.8   220    24.5   99999.0    0.00 
  23   15:10   0.30   42.9    40    9.8   224    23.3   99999.0    0.00 
  23   15:20   0.12   41.5    41   11.5   228    25.6   99999.0    0.00 
  23   15:30   0.11   40.6    44   10.6   231    23.3   99999.0    0.00 
  23   15:40   0.05   40.0    46    9.4   236    17.9   99999.0    0.00 
  23   15:50   0.08   40.0    46    8.5   220    16.1   99999.0    0.00 
  23   16:00   0.11   40.3    47    7.0   212    17.3   99999.0    0.00 
  23   16:10   0.05   40.1    48    7.4   212    17.9   99999.0    0.00 
  23   16:20   0.03   39.5    49    7.7   222    23.3   99999.0    0.00 
  23   16:30   0.02   39.2    51    6.0   205    13.4   99999.0    0.00 
  23   16:40   0.04   39.2    51   10.6   215    20.3   99999.0    0.00 
  23   16:50   0.09   39.5    48   11.4   222    35.2   99999.0    0.00 
  23   17:00   0.02   38.2    47   10.6   232    23.3   99999.0    0.00 
  23   17:10   0.01   37.3    49   10.1   240    22.1   99999.0    0.00 
  23   17:20   0.01   36.9    50    9.4   235    19.7   99999.0    0.00 
  23   17:30   0.00   36.7    51    9.2   226    23.3   99999.0    0.00 
  23   17:40   0.00   36.8    49    9.6   217    25.0   99999.0    0.00 
  23   17:50   0.00   36.5    50   11.0   231    25.6   99999.0    0.00 
  23   18:00   0.00   35.7    52    7.6   223    20.3   99999.0    0.00 
  23   18:10   0.00   35.2    53    8.4   228    20.9   99999.0    0.00 
  23   18:20   0.00   35.0    53    7.9   230    21.5   99999.0    0.00 
  23   18:30   0.00   34.9    53    6.9   228    18.5   99999.0    0.00 
  23   18:40   0.00   35.0    53    7.5   227    19.7   99999.0    0.00 
  23   18:50   0.00   34.8    54    6.8   220    17.3   99999.0    0.00 
  23   19:00   0.00   34.9    54    6.6   217    14.9   99999.0    0.00 
  23   19:10   0.00   34.7    55    4.6   208    10.2   99999.0    0.00 
  23   19:20   0.00   34.6    55    4.8   206    10.8   99999.0    0.00 
  23   19:30   0.00   34.5    56    4.3   198    11.3   99999.0    0.00 
  23   19:40   0.00   34.1    57    2.9   190     6.6   99999.0    0.00 
  23   19:50   0.00   34.2    58    5.2   185    11.3   99999.0    0.00 
  23   20:00   0.00   34.2    59    5.6   186    13.1   99999.0    0.00 
  23   20:10   0.00   34.1    60    6.4   189    17.3   99999.0    0.00 
  23   20:20   0.00   34.2    60    6.3   195    15.5   99999.0    0.00 
  23   20:30   0.00   34.3    61    6.2   194    15.5   99999.0    0.00 
  23   20:40   0.00   34.3    62    6.6   196    16.1   99999.0    0.00 
  23   20:50   0.00   34.4    63    8.7   202    16.1   99999.0    0.00 
  23   21:00   0.00   33.2    74    9.8   209    22.1   99999.0    0.00 
  23   21:10   0.00   31.5    90    8.2   201    20.3   99999.0    0.00 
  23   21:20   0.00   30.3   100    6.5   198    16.1   99999.0    0.00 

Return to Cebollita Spring, Valles Caldera graphs page.


Western Regional Climate Center,wrcc@dri.edu